Aérodrome :
LOGIN :

S'inscrire | Disclaimer

   EN    FR    IT 

 










Légende :    VFR   VFR Marginal   IFR   IFR Intensif   IFR Très Intensif
Visi : 
Plafond : 
>= 8 km
>= 3000ft
5 à 8 km
1000 à 3000 ft
1500m à 5 km
500 à 1000 ft
800 à 1500m
200 à 500 ft
< 800m
< 200 ft
Symboles :   Orages  Brouillard  Fortes neiges  Fortes précipitations  Vent > 20 kt
SIGMETs :   Divers  Orages  Givrage  Turbulence  Onde Orograph.  Cendres Volcan.






- Altitude de l'aérodrome : 63 ft
- Code IATA : BZM


EHWO - Woensdrecht Airbase

DERNIER METAR :
  • 031855Z AUTO 35008KT 290V030 9999 OVC210 17/10 Q1003 BLU

METARs EXPIRÉS :
  • 031825Z AUTO 33007KT 300V040 9999 BKN200 OVC270 18/10 Q1003 BLU
  • 031755Z AUTO 33009KT 290V040 9999 OVC210 18/10 Q1003 BLU
  • 031725Z AUTO 32008KT 290V040 9999 OVC260 18/10 Q1003 BLU
  • 031655Z AUTO 31009KT 270V020 9999 OVC200 19/10 Q1003 BLU

TAF TAF EHWO
Valide du 03 à 09h jusqu'au 03 à 21h UTC


030821Z 0309/0321 28007KT CAVOK
TEMPO 0313/0317 29010G20KT
BECMG 0315/0318 34008KT



MET'MAP, la Météo Aéronautique d'un coup d'oeil ! - Copyright ORBIFLY Décembre 2007 - Disclaimer

ORBIFLY MET'MAP TEAM :

Programmation & Développement : Alexandra Zaïnal
Sur une idée originale de : Baudouin d'Aumeries
Assistance à la programmation : Marc-Olivier Méhu
Soutien technique & logistique : Manuel Goepfert

Contact : metmap@orbifly.com




SOURCES & CREDITS :

   NOAA